Main page
METAR-TAF:

METAR-TAF

Airports :

Tripoli, Libya

Mitiga International Airport

latitude: 32-54N, longitude: 13-17E, elevation: 11 m

Current weather observation

The report was made 38 minutes ago, at 06:50 UTC
Wind 2 kt from variable directions
Temperature 27°C
Humidity 45%
Pressure 1014 hPa
Visibility: 6000 m
Clear sky

METAR: HLLM 260650Z VRB02KT 6000 SKC 27/14 Q1014

Time: 09:28 (07:28 UTC)

Forecast

The report was made 2 hours and 28 minutes ago, at 05:00 UTC
Forecast valid from 26 at 06 UTC to 27 at 06 UTC
Wind 12 kt from the East
Visibility 10 km or more
Few clouds at a height of 3000 ft
Becoming
from 26 at 21 UTC to 26 at 23 UTC
Wind 2 kt from variable directions
Becoming
from 27 at 03 UTC to 27 at 05 UTC
Wind 12 kt from the East/Northeast

TAF: HLLM 260500Z 2606/2706 08012KT 9999 FEW030 BECMG 2621/2623 VRB02KT BECMG 2703/2705 07012KT

Weather observations and forecasts of more than 4000 airports (METAR and TAF reports).

The available stations are represented by yellow and red dots on the map.

Hover mouse over dot to see the name of the station.

Then click to see weather observations and forecasts.

To change the map : click on the green buttons with a black cross to zoom in, on the green button with a dash to zoom out, or on the green arrows for adjacent maps.


METAR-TAF: